Bishopton, United Kingdom
Current Conditions -  °F | °C
As of 4:50 AM on Monday 22 Dec 2014 (Local Time) from EGPF Reporting Station
Light Rain Light Rain  
Wind Chill: 43°   Ceiling: 2500
Heat Index: 46°   Visibility: 6mi
Dew Point: 45°   Wind: 7mph
Humidity: 93%   Direction: 280°W
Pressure: 29.59"   Gusts: NA
Location:  55.9°N, 4.5°W
Report Text: EGPF 220450Z AUTO 28006KT 9999 -RA SCT015/// BKN025/// OVC049/// //////TCU 08/07 Q1002
Loading
Personal Weather Stations






























Interactive Weather Map New forecast layout! Learn more

10-Day Weather Forecast

Advertisements
Track Severe Weather on mobile